METAR Data
IDs: Format: Raw Decoded Include TAF

Data at: 0008 UTC 25 Apr 2019

METAR for:KCIN (Carroll/Neu Arpt, IA, US)
Text:KCIN 242355Z AUTO 24006KT 10SM CLR 23/M01 A2975 RMK AO2
Temperature: 23.0°C ( 73°F)
Dewpoint: -1.0°C ( 30°F) [RH = 20%]
Pressure (altimeter):29.75 inches Hg (1007.5 mb)
Winds:from the WSW (240 degrees) at 7 MPH (6 knots; 3.1 m/s)
Visibility:10 or more sm (16+ km)
Ceiling:at least 12,000 feet AGL
Clouds:sky clear below 12,000 feet AGL
QC Flag:automated observation with no human augmentation